createdAt,value
2023-01-26T00:00:23.527Z,-2.06
2023-01-26T00:03:13.501Z,-2.04
2023-01-26T00:06:07.730Z,-2.04
2023-01-26T00:08:59.727Z,-2.04
2023-01-26T00:11:50.851Z,-2.04
2023-01-26T00:14:52.191Z,-2.04
2023-01-26T00:17:41.514Z,-2.03
2023-01-26T00:20:31.014Z,-2.00
2023-01-26T00:23:20.517Z,-1.97
2023-01-26T00:26:10.698Z,-1.96
2023-01-26T00:29:00.369Z,-2.02
2023-01-26T00:31:50.128Z,-2.05
2023-01-26T00:34:39.603Z,-2.11
2023-01-26T00:37:29.313Z,-2.12
2023-01-26T00:40:18.936Z,-2.12
2023-01-26T00:43:07.951Z,-2.10
2023-01-26T00:45:57.059Z,-2.08
2023-01-26T00:48:47.982Z,-2.05
2023-01-26T00:51:37.920Z,-2.02
2023-01-26T00:54:27.697Z,-1.99
2023-01-26T00:57:17.482Z,-1.98
2023-01-26T01:00:07.946Z,-1.98
2023-01-26T01:02:57.502Z,-1.98
2023-01-26T01:05:46.827Z,-1.99
2023-01-26T01:08:35.976Z,-1.98
2023-01-26T01:11:25.041Z,-2.01
2023-01-26T01:14:14.568Z,-2.08
2023-01-26T01:17:04.022Z,-2.08
2023-01-26T01:19:53.260Z,-2.07
2023-01-26T01:22:43.900Z,-2.07
2023-01-26T01:25:34.875Z,-2.06
2023-01-26T01:28:23.938Z,-2.08
2023-01-26T01:31:14.977Z,-2.06
2023-01-26T01:34:04.579Z,-2.06
2023-01-26T01:36:55.182Z,-2.01
2023-01-26T01:39:44.286Z,-2.01
2023-01-26T01:42:33.950Z,-2.04
2023-01-26T01:45:25.990Z,-2.02
2023-01-26T01:48:25.006Z,-2.00
2023-01-26T01:51:17.229Z,-2.00
2023-01-26T01:54:09.494Z,-1.99
2023-01-26T01:57:00.496Z,-2.01
2023-01-26T01:59:52.340Z,-2.02
2023-01-26T02:02:44.248Z,-2.00
2023-01-26T02:05:35.242Z,-1.94
2023-01-26T02:08:27.418Z,-1.94
2023-01-26T02:11:22.832Z,-1.92
2023-01-26T02:14:12.365Z,-1.89
2023-01-26T02:17:02.725Z,-1.87
2023-01-26T02:20:27.148Z,-1.85
2023-01-26T02:23:44.924Z,-1.87
2023-01-26T02:26:36.041Z,-1.88
2023-01-26T02:29:25.455Z,-1.89
2023-01-26T02:32:14.883Z,-1.94
2023-01-26T02:35:04.534Z,-1.97
2023-01-26T02:37:53.915Z,-1.98
2023-01-26T02:41:04.870Z,-1.98
2023-01-26T02:43:54.473Z,-2.04
2023-01-26T02:46:43.693Z,-2.03
2023-01-26T02:49:48.532Z,-2.00
2023-01-26T02:52:38.789Z,-2.01
2023-01-26T02:55:33.886Z,-2.07
2023-01-26T02:58:23.051Z,-2.09
2023-01-26T03:01:12.714Z,-2.07
2023-01-26T03:04:09.405Z,-2.05
2023-01-26T03:07:01.091Z,-2.06
2023-01-26T03:09:50.774Z,-2.07
2023-01-26T03:12:40.255Z,-2.06
2023-01-26T03:15:42.994Z,-2.05
2023-01-26T03:18:52.558Z,-2.07
2023-01-26T03:22:02.665Z,-2.07
2023-01-26T03:25:10.539Z,-2.03
2023-01-26T03:27:59.688Z,-2.02
2023-01-26T03:30:50.446Z,-2.00
2023-01-26T03:33:40.773Z,-1.97
2023-01-26T03:36:30.115Z,-1.96
2023-01-26T03:39:38.269Z,-2.02
2023-01-26T03:42:46.083Z,-2.03
2023-01-26T03:45:54.087Z,-2.04
2023-01-26T03:49:03.477Z,-2.05
2023-01-26T03:52:11.331Z,-2.01
2023-01-26T03:55:19.075Z,-2.03
2023-01-26T03:58:09.675Z,-2.02
2023-01-26T04:00:58.778Z,-2.04
2023-01-26T04:04:06.946Z,-2.04
2023-01-26T04:07:14.600Z,-2.03
2023-01-26T04:10:09.140Z,-2.03
2023-01-26T04:13:18.247Z,-2.02
2023-01-26T04:16:31.370Z,-2.04
2023-01-26T04:19:39.246Z,-2.07
2023-01-26T04:22:29.602Z,-2.09
2023-01-26T04:25:20.154Z,-2.10
2023-01-26T04:28:09.748Z,-2.10
2023-01-26T04:30:59.443Z,-2.07
2023-01-26T04:33:48.566Z,-2.05
2023-01-26T04:36:38.148Z,-2.02
2023-01-26T04:39:28.543Z,-2.01
2023-01-26T04:42:18.811Z,-2.00
2023-01-26T04:45:10.482Z,-2.02
2023-01-26T04:47:59.933Z,-2.03
2023-01-26T04:50:56.895Z,-2.04
2023-01-26T04:53:47.331Z,-2.03
2023-01-26T04:56:37.174Z,-2.03
2023-01-26T04:59:26.865Z,-2.03
2023-01-26T05:02:21.281Z,-2.06
2023-01-26T05:05:10.701Z,-2.07
2023-01-26T05:08:01.534Z,-2.08
2023-01-26T05:10:52.548Z,-2.08
2023-01-26T05:14:02.161Z,-2.07
2023-01-26T05:17:13.187Z,-2.10
2023-01-26T05:20:22.754Z,-2.11
2023-01-26T05:23:31.275Z,-2.13
2023-01-26T05:26:43.308Z,-2.13
2023-01-26T05:29:36.391Z,-2.14
2023-01-26T05:32:27.309Z,-2.16
2023-01-26T05:35:18.282Z,-2.19
2023-01-26T05:38:07.661Z,-2.22
2023-01-26T05:40:58.622Z,-2.17
2023-01-26T05:43:47.847Z,-2.17
2023-01-26T05:46:54.429Z,-2.15
2023-01-26T05:49:46.032Z,-2.14
2023-01-26T05:52:42.264Z,-2.10
2023-01-26T05:55:33.555Z,-2.06
2023-01-26T05:58:25.432Z,-2.05
2023-01-26T06:01:14.924Z,-2.06
2023-01-26T06:04:10.304Z,-2.04
2023-01-26T06:07:06.084Z,-2.01
2023-01-26T06:10:05.541Z,-2.00
2023-01-26T06:13:14.976Z,-1.97
2023-01-26T06:16:09.913Z,-1.95
2023-01-26T06:18:59.675Z,-1.92
2023-01-26T06:21:49.227Z,-1.90
2023-01-26T06:24:38.551Z,-1.86
2023-01-26T06:27:30.191Z,-1.83
2023-01-26T06:30:21.623Z,-1.81
2023-01-26T06:33:14.526Z,-1.77
2023-01-26T06:36:05.026Z,-1.72
2023-01-26T06:38:58.152Z,-1.70
2023-01-26T06:42:18.168Z,-1.70
2023-01-26T06:45:07.999Z,-1.71
2023-01-26T06:47:57.518Z,-1.74
2023-01-26T06:50:46.753Z,-1.75
2023-01-26T06:53:38.640Z,-1.72
2023-01-26T06:56:39.556Z,-1.66
2023-01-26T06:59:43.302Z,-1.63
2023-01-26T07:02:46.143Z,-1.59
2023-01-26T07:05:36.027Z,-1.57
2023-01-26T07:08:25.652Z,-1.53
2023-01-26T07:11:20.301Z,-1.51
2023-01-26T07:14:10.211Z,-1.49
2023-01-26T07:16:59.542Z,-1.45
2023-01-26T07:19:48.816Z,-1.41
2023-01-26T07:22:38.397Z,-1.36
2023-01-26T07:25:28.279Z,-1.29
2023-01-26T07:28:18.242Z,-1.24
2023-01-26T07:31:13.775Z,-1.16
2023-01-26T07:34:08.068Z,-1.10
2023-01-26T07:36:57.715Z,-1.03
2023-01-26T07:39:46.912Z,-0.98
2023-01-26T07:42:36.510Z,-0.92
2023-01-26T07:45:41.824Z,-0.88
2023-01-26T07:48:31.108Z,-0.83
2023-01-26T07:51:20.314Z,-0.76
2023-01-26T07:54:10.873Z,-0.65
2023-01-26T07:57:00.568Z,-0.50
2023-01-26T07:59:51.397Z,-0.36
2023-01-26T08:02:42.363Z,-0.27
2023-01-26T08:05:39.182Z,-0.19
2023-01-26T08:08:28.752Z,-0.15
2023-01-26T08:11:28.625Z,-0.13
2023-01-26T08:14:24.925Z,-0.06
2023-01-26T08:17:17.647Z,0.00
2023-01-26T08:20:09.653Z,0.06
2023-01-26T08:23:00.519Z,0.10
2023-01-26T08:26:11.238Z,0.16
2023-01-26T08:29:07.870Z,0.26
2023-01-26T08:31:58.485Z,0.32
2023-01-26T08:34:48.367Z,0.37
2023-01-26T08:37:40.960Z,0.42
2023-01-26T08:40:33.238Z,0.43
2023-01-26T08:43:23.933Z,0.43
2023-01-26T08:46:15.858Z,0.46
2023-01-26T08:49:05.264Z,0.46
2023-01-26T08:51:57.098Z,0.45
2023-01-26T08:54:47.855Z,0.50
2023-01-26T08:57:40.516Z,0.58
2023-01-26T09:00:36.257Z,0.64
2023-01-26T09:03:27.461Z,0.69
2023-01-26T09:06:17.373Z,0.72
2023-01-26T09:09:14.606Z,0.76
2023-01-26T09:12:06.523Z,0.84
2023-01-26T09:14:59.144Z,0.90
2023-01-26T09:17:52.507Z,0.94
2023-01-26T09:20:44.806Z,1.01
2023-01-26T09:23:46.148Z,1.07
2023-01-26T09:26:38.692Z,1.16
2023-01-26T09:29:41.791Z,1.19
2023-01-26T09:32:31.856Z,1.20
2023-01-26T09:35:23.837Z,1.29
2023-01-26T09:38:16.981Z,1.32
2023-01-26T09:41:39.963Z,1.28
2023-01-26T09:44:33.597Z,1.23
2023-01-26T09:47:49.901Z,1.15
2023-01-26T09:50:46.468Z,1.11
2023-01-26T09:53:53.036Z,1.04
2023-01-26T09:56:43.685Z,0.84
2023-01-26T09:59:39.992Z,0.77
2023-01-26T10:02:56.094Z,0.71
2023-01-26T12:09:47.174Z,-0.98
2023-01-26T12:12:41.028Z,-0.95
2023-01-26T12:15:37.064Z,-0.84
2023-01-26T12:19:15.266Z,-0.74
2023-01-26T12:22:38.274Z,-0.65
2023-01-26T12:25:37.073Z,-0.65
2023-01-26T12:28:40.086Z,-0.62
2023-01-26T12:31:37.414Z,-0.55
2023-01-26T12:34:32.665Z,-0.52
2023-01-26T12:37:52.089Z,-0.51
2023-01-26T12:40:45.217Z,-0.51
2023-01-26T12:43:45.627Z,-0.50
2023-01-26T12:46:37.225Z,-0.53
2023-01-26T12:49:40.725Z,-0.60
2023-01-26T12:52:39.929Z,-0.66
2023-01-26T12:55:30.699Z,-0.67
2023-01-26T12:58:23.655Z,-0.67
2023-01-26T13:01:13.808Z,-0.68
2023-01-26T13:04:08.064Z,-0.70
2023-01-26T13:07:07.935Z,-0.76
2023-01-26T13:10:08.702Z,-0.78
2023-01-26T13:13:05.997Z,-0.80
2023-01-26T13:16:17.386Z,-0.83
2023-01-26T13:19:09.364Z,-0.86
2023-01-26T13:21:59.549Z,-0.89
2023-01-26T13:24:58.433Z,-0.91
2023-01-26T13:27:57.209Z,-0.98
2023-01-26T13:30:46.541Z,-1.07
2023-01-26T13:33:36.796Z,-1.18
2023-01-26T13:36:30.844Z,-1.23
2023-01-26T13:39:34.773Z,-1.31
2023-01-26T13:42:31.842Z,-1.43
2023-01-26T13:45:36.557Z,-1.52
2023-01-26T13:48:37.395Z,-1.60
2023-01-26T13:51:31.077Z,-1.63
2023-01-26T13:54:21.233Z,-1.72
2023-01-26T13:57:11.339Z,-1.77
2023-01-26T14:00:03.592Z,-1.86
2023-01-26T14:02:56.195Z,-1.98
2023-01-26T14:05:52.724Z,-2.10
2023-01-26T14:08:45.907Z,-2.19
2023-01-26T14:11:35.253Z,-2.28
2023-01-26T14:14:26.450Z,-2.34
2023-01-26T14:17:27.976Z,-2.47
2023-01-26T14:20:27.273Z,-2.54
2023-01-26T14:23:19.294Z,-2.59
2023-01-26T14:26:20.745Z,-2.67
2023-01-26T14:29:18.418Z,-2.73
2023-01-26T14:32:16.801Z,-2.77
2023-01-26T14:35:19.408Z,-2.84
2023-01-26T14:38:11.240Z,-2.91
2023-01-26T14:41:00.906Z,-3.00
2023-01-26T14:43:57.103Z,-3.07
2023-01-26T14:46:50.137Z,-3.16
2023-01-26T14:49:52.259Z,-3.22
2023-01-26T14:52:44.350Z,-3.28
2023-01-26T14:55:39.105Z,-3.39
2023-01-26T14:58:30.159Z,-3.51
2023-01-26T15:01:23.134Z,-3.57
2023-01-26T15:04:27.431Z,-3.61
2023-01-26T15:07:44.039Z,-3.67
2023-01-26T15:10:38.134Z,-3.75
2023-01-26T15:13:30.099Z,-3.87
2023-01-26T15:16:23.149Z,-3.95
2023-01-26T15:19:24.946Z,-4.01
2023-01-26T15:22:19.518Z,-4.08
2023-01-26T15:25:17.332Z,-4.13
2023-01-26T15:28:05.984Z,-4.18
2023-01-26T15:30:55.926Z,-4.22
2023-01-26T15:33:52.181Z,-4.23
2023-01-26T15:36:48.026Z,-4.26
2023-01-26T15:39:37.426Z,-4.30
2023-01-26T15:42:28.924Z,-4.36
2023-01-26T15:45:23.414Z,-4.38
2023-01-26T15:48:12.595Z,-4.44
2023-01-26T15:51:01.422Z,-4.52
2023-01-26T15:53:50.148Z,-4.55
2023-01-26T15:56:39.494Z,-4.61
2023-01-26T15:59:28.217Z,-4.67
2023-01-26T18:06:34.868Z,-7.31
2023-01-26T18:09:24.170Z,-7.31
2023-01-26T18:12:13.232Z,-7.27
2023-01-26T18:15:01.952Z,-7.18
2023-01-26T18:17:50.947Z,-7.06
2023-01-26T18:20:40.049Z,-6.95
2023-01-26T18:23:28.768Z,-6.89
2023-01-26T18:26:18.301Z,-6.80
2023-01-26T18:29:07.074Z,-6.77
2023-01-26T18:31:55.883Z,-6.74
2023-01-26T18:34:44.803Z,-6.73
2023-01-26T18:37:36.398Z,-6.72
2023-01-26T18:40:25.262Z,-6.68
2023-01-26T18:43:14.337Z,-6.63
2023-01-26T18:46:03.305Z,-6.64
2023-01-26T18:48:53.367Z,-6.66
2023-01-26T18:51:47.913Z,-6.60
2023-01-26T18:54:36.659Z,-6.54
2023-01-26T18:57:25.403Z,-6.47
2023-01-26T19:00:14.326Z,-6.47
2023-01-26T19:03:03.054Z,-6.46
2023-01-26T19:05:53.059Z,-6.44
2023-01-26T19:08:42.622Z,-6.41
2023-01-26T19:11:34.105Z,-6.43
2023-01-26T19:14:23.306Z,-6.44
2023-01-26T19:17:12.188Z,-6.45
2023-01-26T19:20:00.823Z,-6.43
2023-01-26T19:22:54.235Z,-6.42
2023-01-26T19:25:43.185Z,-6.42
2023-01-26T19:28:32.378Z,-6.41
2023-01-26T19:31:21.930Z,-6.42
2023-01-26T19:34:13.290Z,-6.41
2023-01-26T19:37:02.201Z,-6.38
2023-01-26T19:39:51.039Z,-6.39
2023-01-26T19:42:40.250Z,-6.41
2023-01-26T19:45:29.488Z,-6.44
2023-01-26T19:48:18.807Z,-6.41
2023-01-26T19:51:15.269Z,-6.40
2023-01-26T19:54:06.847Z,-6.40
2023-01-26T19:56:55.818Z,-6.37
2023-01-26T19:59:44.697Z,-6.36
2023-01-26T20:02:33.733Z,-6.32
2023-01-26T20:05:22.559Z,-6.31
2023-01-26T20:08:11.524Z,-6.29
2023-01-26T20:11:05.204Z,-6.26
2023-01-26T20:13:59.058Z,-6.29
2023-01-26T20:16:47.933Z,-6.29
2023-01-26T20:19:37.059Z,-6.31
2023-01-26T20:22:26.250Z,-6.32
2023-01-26T20:25:19.900Z,-6.32
2023-01-26T20:28:08.841Z,-6.29
2023-01-26T20:31:17.108Z,-6.24
2023-01-26T20:34:12.488Z,-6.16
2023-01-26T20:37:01.472Z,-6.06
2023-01-26T20:39:50.733Z,-5.95
2023-01-26T20:42:39.673Z,-5.82
2023-01-26T20:45:28.571Z,-5.66
2023-01-26T20:48:17.432Z,-5.49
2023-01-26T20:51:10.297Z,-5.37
2023-01-26T20:53:59.213Z,-5.24
2023-01-26T20:56:49.915Z,-5.09
2023-01-26T20:59:39.436Z,-4.96
2023-01-26T21:02:28.336Z,-4.86
2023-01-26T21:05:19.876Z,-4.72
2023-01-26T21:08:08.604Z,-4.61
2023-01-26T21:10:57.663Z,-4.54
2023-01-26T21:13:46.855Z,-4.49
2023-01-26T21:16:42.792Z,-4.42
2023-01-26T21:19:33.294Z,-4.34
2023-01-26T21:22:22.397Z,-4.26
2023-01-26T21:25:11.678Z,-4.15
2023-01-26T21:28:22.169Z,-4.07
2023-01-26T21:31:14.091Z,-4.05
2023-01-26T21:34:02.921Z,-4.04
2023-01-26T21:36:51.603Z,-4.02
2023-01-26T21:39:40.713Z,-4.00
2023-01-26T21:42:29.478Z,-3.93
2023-01-26T21:45:37.028Z,-3.88
2023-01-26T21:48:31.706Z,-3.83
2023-01-26T21:51:39.886Z,-3.78
2023-01-26T21:54:29.958Z,-3.71
2023-01-26T21:57:37.148Z,-3.66
2023-01-26T22:00:26.690Z,-3.62
2023-01-26T22:03:15.423Z,-3.56
2023-01-26T22:06:04.479Z,-3.51
2023-01-26T22:08:53.775Z,-3.48
2023-01-26T22:11:42.562Z,-3.41
2023-01-26T22:14:31.559Z,-3.34
2023-01-26T22:17:20.641Z,-3.32
2023-01-26T22:20:10.235Z,-3.28
2023-01-26T22:22:59.904Z,-3.29
2023-01-26T22:25:48.772Z,-3.23
2023-01-26T22:28:37.586Z,-3.20
2023-01-26T22:31:28.054Z,-3.24
2023-01-26T22:34:16.741Z,-3.22
2023-01-26T22:37:06.042Z,-3.17
2023-01-26T22:39:54.716Z,-3.17
2023-01-26T22:42:43.399Z,-3.18
2023-01-26T22:45:32.442Z,-3.18
2023-01-26T22:48:21.295Z,-3.15
2023-01-26T22:51:21.648Z,-3.10
2023-01-26T22:54:10.462Z,-3.08
2023-01-26T22:56:59.121Z,-3.05
2023-01-26T22:59:47.929Z,-3.00
2023-01-26T23:02:36.961Z,-2.98
2023-01-26T23:05:25.759Z,-2.96
2023-01-26T23:08:14.385Z,-2.94
2023-01-26T23:11:11.161Z,-2.90
2023-01-26T23:14:00.811Z,-2.87
2023-01-26T23:16:49.662Z,-2.84
2023-01-26T23:19:38.306Z,-2.83
2023-01-26T23:22:27.049Z,-2.81
2023-01-26T23:25:34.234Z,-2.79
2023-01-26T23:28:29.061Z,-2.77
2023-01-26T23:31:18.394Z,-2.79
2023-01-26T23:34:07.147Z,-2.79
2023-01-26T23:36:55.716Z,-2.76
2023-01-26T23:39:44.523Z,-2.75
2023-01-26T23:42:41.531Z,-2.78
2023-01-26T23:45:39.084Z,-2.78
2023-01-26T23:48:28.291Z,-2.75
2023-01-26T23:51:17.155Z,-2.75
2023-01-26T23:54:05.834Z,-2.73
2023-01-26T23:56:54.573Z,-2.70
2023-01-26T23:59:43.268Z,-2.70
